Time;durP1;ratioP1;P1;durP2;ratioP2;P2;SDS_P1;SDS_P2;PMS_P1;PMS_P2;Temp;Humidity;BMP_temperature;BMP_pressure;BME280_temperature;BME280_humidity;BME280_pressure;Samples;Min_cycle;Max_cycle;Signal;HPM_P1;HPM_P2
2023/08/10 00:00:12;;;;;;;3.20;0.20;;;14.50;99.90;;;;;;5033128;28;20092;-77
2023/08/10 00:02:39;;;;;;;3.08;0.15;;;14.50;99.90;;;;;;5033142;28;20152;-77
2023/08/10 00:05:05;;;;;;;1.98;0.00;;;14.50;99.90;;;;;;5031540;28;20028;-77
2023/08/10 00:07:31;;;;;;;0.55;0.00;;;14.50;99.90;;;;;;5033092;28;20032;-77
2023/08/10 00:09:57;;;;;;;4.25;0.38;;;14.50;99.90;;;;;;5033034;28;20104;-77
2023/08/10 00:12:22;;;;;;;0.20;0.00;;;14.50;99.90;;;;;;5032918;28;20021;-74
2023/08/10 00:14:48;;;;;;;0.93;0.00;;;14.50;99.90;;;;;;5033368;28;20040;-76
2023/08/10 00:17:15;;;;;;;0.95;0.38;;;14.50;99.90;;;;;;5033513;28;20030;-78
2023/08/10 00:19:40;;;;;;;2.10;0.08;;;14.50;99.90;;;;;;5031702;28;20029;-78
2023/08/10 00:22:06;;;;;;;1.00;0.00;;;14.50;99.90;;;;;;5033722;28;20125;-78
2023/08/10 00:24:32;;;;;;;1.17;0.00;;;14.70;99.90;;;;;;5033206;28;20096;-77
2023/08/10 00:26:57;;;;;;;1.38;0.38;;;14.50;99.90;;;;;;5031836;28;20026;-78
2023/08/10 00:29:23;;;;;;;0.90;0.00;;;14.50;99.90;;;;;;5033255;28;20040;-78
2023/08/10 00:31:49;;;;;;;1.17;0.00;;;14.50;99.90;;;;;;5031941;28;20104;-77
2023/08/10 00:34:15;;;;;;;2.00;0.00;;;14.50;99.90;;;;;;5031723;28;20030;-78
2023/08/10 00:36:41;;;;;;;0.68;0.00;;;14.50;99.90;;;;;;5033079;28;20029;-77
2023/08/10 00:39:07;;;;;;;2.72;0.10;;;14.50;99.90;;;;;;5035264;28;20473;-78
2023/08/10 00:41:33;;;;;;;5.97;0.15;;;14.50;99.90;;;;;;5037096;28;20036;-76
2023/08/10 00:43:59;;;;;;;0.80;0.00;;;14.50;99.90;;;;;;5036477;28;20060;-77
2023/08/10 00:46:25;;;;;;;0.15;0.00;;;14.50;99.90;;;;;;5037207;28;20067;-78
2023/08/10 00:48:51;;;;;;;3.05;0.17;;;14.50;99.90;;;;;;5037327;28;20052;-77
2023/08/10 00:51:19;;;;;;;4.68;0.10;;;14.50;99.90;;;;;;5036361;28;20053;-78
2023/08/10 00:53:45;;;;;;;0.25;0.00;;;14.50;99.90;;;;;;5036361;28;20036;-77
2023/08/10 00:56:11;;;;;;;0.15;0.00;;;14.50;99.90;;;;;;5036974;28;20108;-77
2023/08/10 00:58:37;;;;;;;1.80;0.00;;;14.50;99.90;;;;;;5036487;28;20095;-76
2023/08/10 01:01:04;;;;;;;5.13;0.10;;;14.40;99.90;;;;;;5036677;28;20034;-76
2023/08/10 01:03:30;;;;;;;0.85;0.00;;;14.90;99.90;;;;;;5035054;28;20025;-76
2023/08/10 01:06:26;;;;;;;1.98;0.13;;;14.20;99.90;;;;;;5036139;28;20067;-77
2023/08/10 01:09:10;;;;;;;0.82;0.00;;;14.20;99.90;;;;;;5034692;28;20033;-76
2023/08/10 01:11:43;;;;;;;2.45;0.05;;;14.10;99.90;;;;;;5036179;28;20026;-76
2023/08/10 01:14:12;;;;;;;2.28;0.00;;;14.00;99.90;;;;;;5036255;28;20457;-77
2023/08/10 01:16:41;;;;;;;1.40;0.10;;;14.00;99.90;;;;;;5035877;28;20029;-76
2023/08/10 01:19:30;;;;;;;0.50;0.00;;;13.90;99.90;;;;;;5034818;28;20041;-76
2023/08/10 01:22:16;;;;;;;0.17;0.00;;;13.80;99.90;;;;;;5034681;28;20017;-78
2023/08/10 01:24:43;;;;;;;3.17;0.10;;;13.80;99.90;;;;;;5034682;28;20021;-77
2023/08/10 01:27:13;;;;;;;0.40;0.10;;;13.70;99.90;;;;;;5034849;28;20362;-77
2023/08/10 01:29:40;;;;;;;1.38;0.00;;;13.60;99.90;;;;;;5035699;28;20485;-77
2023/08/10 01:32:12;;;;;;;1.60;0.00;;;13.60;99.90;;;;;;5034487;28;20397;-78
2023/08/10 01:34:38;;;;;;;3.83;0.00;;;13.60;99.90;;;;;;5036020;28;20029;-77
2023/08/10 01:37:04;;;;;;;1.65;0.00;;;13.60;99.90;;;;;;5034598;28;20026;-77
2023/08/10 01:39:32;;;;;;;2.38;0.10;;;13.50;99.90;;;;;;5035588;28;20026;-78
2023/08/10 01:41:57;;;;;;;1.65;0.00;;;13.50;99.90;;;;;;5035345;28;20409;-77
2023/08/10 01:44:23;;;;;;;1.92;0.00;;;13.50;99.90;;;;;;5035531;28;20022;-77
2023/08/10 01:46:50;;;;;;;1.45;0.15;;;13.60;99.90;;;;;;5035450;28;20388;-77
2023/08/10 01:49:18;;;;;;;1.40;0.00;;;13.50;99.90;;;;;;5033992;28;20025;-77
2023/08/10 01:51:46;;;;;;;2.70;0.25;;;13.60;99.90;;;;;;5034930;28;20057;-78
2023/08/10 01:54:12;;;;;;;2.55;0.13;;;13.60;99.90;;;;;;5035329;28;20029;-76
2023/08/10 01:56:38;;;;;;;0.93;0.10;;;13.90;99.90;;;;;;5033985;28;20021;-77
2023/08/10 01:59:04;;;;;;;3.38;0.28;;;13.60;99.90;;;;;;5035408;28;20034;-78
2023/08/10 02:01:29;;;;;;;3.40;0.30;;;13.60;99.90;;;;;;5034056;28;20040;-78
2023/08/10 02:03:57;;;;;;;2.25;0.28;;;13.60;99.90;;;;;;5035166;28;20028;-78
2023/08/10 02:06:22;;;;;;;2.88;0.10;;;13.60;99.90;;;;;;5035153;28;20021;-78
2023/08/10 02:08:48;;;;;;;0.28;0.00;;;13.50;99.90;;;;;;5033909;28;20033;-77
2023/08/10 02:11:16;;;;;;;2.55;0.00;;;13.60;99.90;;;;;;5033872;28;20014;-76
2023/08/10 02:13:41;;;;;;;0.40;0.00;;;13.50;99.90;;;;;;5033814;28;20036;-78
2023/08/10 02:16:07;;;;;;;1.08;0.10;;;13.50;99.90;;;;;;5034811;28;20033;-76
2023/08/10 02:18:33;;;;;;;1.20;0.08;;;13.40;99.90;;;;;;5034877;28;20504;-77
2023/08/10 02:21:00;;;;;;;1.50;0.10;;;13.40;99.90;;;;;;5034785;28;20025;-76
2023/08/10 02:23:29;;;;;;;0.63;0.00;;;13.90;99.90;;;;;;5033464;28;20112;-78
2023/08/10 02:25:54;;;;;;;3.50;0.00;;;13.60;99.90;;;;;;5034731;28;20021;-78
2023/08/10 02:28:20;;;;;;;1.20;0.10;;;13.30;99.90;;;;;;5033471;28;20121;-77
2023/08/10 02:30:45;;;;;;;2.05;0.40;;;13.20;99.90;;;;;;5034619;28;20053;-77
2023/08/10 02:33:11;;;;;;;2.50;0.35;;;13.30;99.90;;;;;;5034687;28;20036;-76
2023/08/10 02:35:36;;;;;;;0.88;0.00;;;13.20;99.90;;;;;;5034410;28;20025;-76
2023/08/10 02:38:02;;;;;;;0.43;0.10;;;13.10;99.90;;;;;;5033395;28;20028;-78
2023/08/10 02:40:27;;;;;;;2.80;0.20;;;13.10;99.90;;;;;;5034503;28;20389;-77
2023/08/10 02:42:53;;;;;;;1.48;0.10;;;13.10;99.90;;;;;;5034515;28;20508;-78
2023/08/10 02:45:18;;;;;;;1.90;0.17;;;13.10;99.90;;;;;;5034219;28;20535;-78
2023/08/10 02:47:44;;;;;;;3.35;0.00;;;13.10;99.90;;;;;;5033147;28;20412;-78
2023/08/10 02:50:11;;;;;;;0.95;0.30;;;13.10;99.90;;;;;;5033084;28;20378;-77
2023/08/10 02:52:37;;;;;;;1.35;0.00;;;13.10;99.90;;;;;;5034941;28;20026;-76
2023/08/10 02:55:03;;;;;;;1.98;0.00;;;13.00;99.90;;;;;;5032822;28;20021;-76
2023/08/10 02:57:30;;;;;;;2.08;0.10;;;13.10;99.90;;;;;;5034095;28;20072;-78
2023/08/10 02:59:55;;;;;;;0.57;0.05;;;13.10;99.90;;;;;;5034121;28;20036;-76
2023/08/10 03:02:21;;;;;;;1.30;0.00;;;13.70;99.90;;;;;;5033330;28;20025;-77
2023/08/10 03:04:47;;;;;;;0.80;0.00;;;13.20;99.90;;;;;;5033842;28;20531;-78
2023/08/10 03:07:13;;;;;;;1.30;0.20;;;13.20;99.90;;;;;;5034075;28;20473;-78
2023/08/10 03:09:41;;;;;;;3.15;0.75;;;13.30;99.90;;;;;;5032750;28;20129;-78
2023/08/10 03:12:07;;;;;;;0.43;0.00;;;13.30;99.90;;;;;;5034056;28;20017;-76
2023/08/10 03:14:33;;;;;;;1.50;0.20;;;13.30;99.90;;;;;;5033785;28;20260;-76
2023/08/10 03:16:58;;;;;;;5.78;0.35;;;13.30;99.90;;;;;;5032545;28;20029;-76
2023/08/10 03:19:24;;;;;;;0.50;0.00;;;13.30;99.90;;;;;;5033892;28;20127;-76
2023/08/10 03:21:50;;;;;;;0.88;0.20;;;13.30;99.90;;;;;;5033749;28;20025;-77
2023/08/10 03:24:15;;;;;;;1.73;0.00;;;13.30;99.90;;;;;;5032462;28;20021;-78
2023/08/10 03:26:41;;;;;;;0.10;0.00;;;13.30;99.90;;;;;;5032536;28;20111;-78
2023/08/10 03:29:06;;;;;;;0.90;0.00;;;13.30;99.90;;;;;;5033783;28;20072;-78
2023/08/10 03:31:32;;;;;;;1.08;0.10;;;13.20;99.90;;;;;;5034408;28;20431;-77
2023/08/10 03:33:57;;;;;;;3.83;0.35;;;13.20;99.90;;;;;;5033710;28;20533;-77
2023/08/10 03:36:23;;;;;;;1.65;0.20;;;13.20;99.90;;;;;;5033586;28;20033;-77
2023/08/10 03:38:49;;;;;;;1.33;0.10;;;13.20;99.90;;;;;;5033867;28;20025;-76
2023/08/10 03:41:14;;;;;;;1.05;0.00;;;13.10;99.90;;;;;;5033711;28;20021;-77
2023/08/10 03:43:40;;;;;;;2.55;0.10;;;13.10;99.90;;;;;;5033467;28;20036;-78
2023/08/10 03:46:06;;;;;;;4.38;0.30;;;13.00;99.90;;;;;;5032256;28;20071;-78
2023/08/10 03:48:32;;;;;;;2.15;0.30;;;13.00;99.90;;;;;;5033866;28;20022;-76
2023/08/10 03:50:58;;;;;;;2.80;0.22;;;13.00;99.90;;;;;;5033660;28;20032;-77
2023/08/10 03:53:23;;;;;;;0.50;0.08;;;12.90;99.90;;;;;;5032199;28;20118;-76
2023/08/10 03:55:49;;;;;;;0.57;0.00;;;12.90;99.90;;;;;;5032422;28;20036;-78
2023/08/10 03:58:14;;;;;;;3.70;0.65;;;12.90;99.90;;;;;;5033461;28;20037;-76
2023/08/10 04:00:44;;;;;;;2.88;0.30;;;12.90;99.90;;;;;;5033441;28;20030;-76
2023/08/10 04:03:11;;;;;;;1.02;0.13;;;12.90;99.90;;;;;;5032157;28;20476;-78
2023/08/10 04:05:36;;;;;;;0.70;0.10;;;12.80;99.90;;;;;;5033338;28;20027;-77
2023/08/10 04:08:03;;;;;;;1.25;0.38;;;12.90;99.90;;;;;;5032057;28;20025;-76
2023/08/10 04:10:30;;;;;;;1.25;0.17;;;12.90;99.90;;;;;;5033461;28;20097;-78
2023/08/10 04:12:55;;;;;;;3.50;0.47;;;12.90;99.90;;;;;;5032607;28;20033;-77
2023/08/10 04:15:21;;;;;;;2.22;0.08;;;12.90;99.90;;;;;;5035807;28;20044;-77
2023/08/10 04:17:47;;;;;;;1.95;0.30;;;12.90;99.90;;;;;;5037188;28;20392;-77
2023/08/10 04:20:14;;;;;;;2.75;0.20;;;13.00;99.90;;;;;;5035881;28;20473;-76
2023/08/10 04:22:39;;;;;;;4.35;0.93;;;13.00;99.90;;;;;;5037126;28;20497;-77
2023/08/10 04:25:07;;;;;;;3.72;0.20;;;13.00;99.90;;;;;;5035383;28;20025;-78
2023/08/10 04:27:33;;;;;;;1.23;0.17;;;13.10;99.90;;;;;;5035663;28;20024;-77
2023/08/10 04:29:59;;;;;;;1.92;0.38;;;13.10;99.90;;;;;;5037116;28;20029;-78
2023/08/10 04:32:24;;;;;;;2.60;0.43;;;13.10;99.90;;;;;;5036950;28;20033;-78
2023/08/10 04:34:51;;;;;;;1.95;0.55;;;13.20;99.90;;;;;;5036753;28;20025;-76
2023/08/10 04:37:17;;;;;;;1.83;0.32;;;13.20;99.90;;;;;;5035471;28;20426;-77
2023/08/10 04:39:43;;;;;;;2.75;0.82;;;13.30;99.90;;;;;;5036910;28;20087;-77
2023/08/10 04:42:09;;;;;;;3.30;0.55;;;13.30;99.90;;;;;;5035587;28;20037;-77
2023/08/10 04:44:35;;;;;;;2.67;0.90;;;13.30;99.90;;;;;;5036729;28;20437;-78
2023/08/10 04:47:00;;;;;;;0.85;0.38;;;14.30;99.90;;;;;;5036710;28;20045;-78
2023/08/10 04:49:28;;;;;;;1.77;0.60;;;13.30;99.90;;;;;;5035337;28;20076;-78
2023/08/10 04:51:54;;;;;;;1.77;0.30;;;13.70;99.90;;;;;;5036554;28;20076;-77
2023/08/10 04:54:20;;;;;;;2.53;0.13;;;13.30;99.90;;;;;;5035100;28;20025;-78
2023/08/10 04:56:46;;;;;;;3.92;0.40;;;13.30;99.90;;;;;;5034954;28;20014;-77
2023/08/10 04:59:11;;;;;;;1.65;0.50;;;13.40;99.90;;;;;;5035132;28;20034;-78
2023/08/10 05:01:38;;;;;;;2.38;0.20;;;13.40;99.90;;;;;;5034942;28;20090;-77
2023/08/10 05:04:04;;;;;;;3.45;0.50;;;14.30;99.90;;;;;;5036241;28;20031;-76
2023/08/10 05:06:30;;;;;;;2.00;0.80;;;13.50;99.90;;;;;;5034996;28;20028;-78
2023/08/10 05:08:56;;;;;;;3.60;0.55;;;13.60;99.90;;;;;;5036106;28;20025;-77
2023/08/10 05:11:23;;;;;;;4.38;0.80;;;13.70;99.90;;;;;;5034935;28;20031;-78
2023/08/10 05:13:48;;;;;;;2.97;0.75;;;13.80;99.90;;;;;;5035870;28;20489;-78
2023/08/10 05:16:15;;;;;;;2.75;0.60;;;13.90;99.90;;;;;;5034640;28;20025;-77
2023/08/10 05:18:40;;;;;;;3.85;0.98;;;14.10;99.90;;;;;;5034695;28;20098;-78
2023/08/10 05:21:06;;;;;;;2.65;0.63;;;14.20;99.90;;;;;;5035926;28;20018;-78
2023/08/10 05:23:32;;;;;;;5.57;1.17;;;14.30;99.90;;;;;;5036030;28;20028;-76
2023/08/10 05:25:57;;;;;;;2.42;1.00;;;14.40;99.90;;;;;;5033288;28;20025;-78
2023/08/10 05:28:23;;;;;;;2.17;0.60;;;14.50;99.90;;;;;;5035654;28;20029;-77
2023/08/10 05:30:48;;;;;;;4.47;0.52;;;14.60;99.90;;;;;;5035866;28;20029;-78
2023/08/10 05:33:14;;;;;;;2.92;1.00;;;15.30;99.90;;;;;;5035752;28;20025;-76
2023/08/10 05:35:40;;;;;;;6.15;0.68;;;14.80;99.90;;;;;;5034215;28;20071;-77
2023/08/10 05:38:06;;;;;;;3.83;0.63;;;14.90;99.90;;;;;;5036194;28;20100;-78
2023/08/10 05:40:33;;;;;;;2.47;0.70;;;15.10;99.90;;;;;;5035483;28;20551;-76
2023/08/10 05:42:58;;;;;;;7.60;0.82;;;15.20;99.90;;;;;;5035785;28;20409;-77
2023/08/10 05:45:25;;;;;;;4.70;0.68;;;15.40;99.90;;;;;;5034110;28;20025;-78
2023/08/10 05:47:51;;;;;;;2.22;0.90;;;15.60;99.90;;;;;;5035272;28;20025;-78
2023/08/10 05:50:17;;;;;;;4.15;0.57;;;16.30;99.90;;;;;;5035395;28;20485;-77
2023/08/10 05:52:46;;;;;;;2.13;0.50;;;16.30;99.90;;;;;;5035401;28;20109;-76
2023/08/10 05:55:13;;;;;;;8.07;0.75;;;16.20;99.90;;;;;;5034109;28;20104;-76
2023/08/10 05:57:39;;;;;;;0.80;0.20;;;16.40;99.90;;;;;;5035272;28;20052;-77
2023/08/10 06:00:05;;;;;;;2.67;0.70;;;16.50;99.90;;;;;;5035214;28;20049;-76
2023/08/10 06:02:31;;;;;;;3.13;0.30;;;16.60;99.90;;;;;;5033986;28;20021;-77
2023/08/10 06:04:57;;;;;;;2.67;0.57;;;16.60;99.90;;;;;;5035837;28;20535;-76
2023/08/10 06:07:22;;;;;;;3.33;1.08;;;16.70;99.90;;;;;;5034477;28;20018;-78
2023/08/10 06:09:48;;;;;;;3.20;0.32;;;16.70;99.90;;;;;;5035922;28;20485;-78
2023/08/10 06:12:16;;;;;;;3.13;0.35;;;16.70;99.90;;;;;;5034854;28;20057;-76
2023/08/10 06:14:41;;;;;;;1.55;0.30;;;16.70;99.90;;;;;;5035255;28;20025;-78
2023/08/10 06:17:07;;;;;;;2.63;0.93;;;16.60;99.90;;;;;;5035169;28;20116;-78
2023/08/10 06:19:34;;;;;;;1.00;0.40;;;16.60;99.90;;;;;;5034033;28;20021;-76
2023/08/10 06:22:00;;;;;;;3.13;0.50;;;16.50;99.90;;;;;;5035270;28;20022;-77
2023/08/10 06:24:25;;;;;;;2.85;0.60;;;16.50;99.90;;;;;;5035790;28;20072;-76
2023/08/10 06:26:51;;;;;;;0.82;0.22;;;16.50;99.90;;;;;;5033763;28;20061;-78
2023/08/10 06:29:16;;;;;;;2.65;0.30;;;17.50;99.90;;;;;;5034914;28;20052;-78
2023/08/10 06:31:42;;;;;;;1.98;0.75;;;16.70;99.90;;;;;;5035525;28;20090;-77
2023/08/10 06:34:09;;;;;;;2.28;0.20;;;16.90;99.90;;;;;;5033633;28;20116;-78
2023/08/10 06:36:34;;;;;;;2.78;0.20;;;17.10;99.90;;;;;;5034647;28;20531;-77
2023/08/10 06:39:01;;;;;;;1.30;0.22;;;17.50;99.90;;;;;;5033650;28;20025;-76
2023/08/10 06:41:26;;;;;;;1.30;0.30;;;17.50;99.90;;;;;;5035039;28;20025;-78
2023/08/10 06:43:52;;;;;;;1.80;0.10;;;17.60;99.90;;;;;;5034934;28;20025;-78
2023/08/10 06:46:17;;;;;;;1.95;0.10;;;18.00;99.90;;;;;;5034979;28;20021;-78
2023/08/10 06:48:43;;;;;;;1.85;0.32;;;18.00;99.90;;;;;;5034995;28;20052;-78
2023/08/10 06:51:08;;;;;;;0.63;0.17;;;18.40;99.90;;;;;;5034365;28;20096;-76
2023/08/10 06:53:34;;;;;;;1.90;0.00;;;18.20;99.90;;;;;;5034413;28;20366;-78
2023/08/10 06:56:00;;;;;;;3.00;0.25;;;18.40;99.90;;;;;;5034687;28;20029;-77
2023/08/10 06:58:25;;;;;;;4.53;0.52;;;18.30;99.90;;;;;;5034741;28;20025;-76
2023/08/10 07:00:51;;;;;;;2.28;0.38;;;18.60;99.90;;;;;;5034613;28;20121;-76
2023/08/10 07:03:17;;;;;;;1.17;0.20;;;18.50;99.90;;;;;;5034244;28;20048;-77
2023/08/10 07:05:43;;;;;;;0.70;0.28;;;18.80;99.90;;;;;;5032848;28;20076;-77
2023/08/10 07:08:09;;;;;;;1.48;0.40;;;18.90;99.90;;;;;;5033104;28;20091;-78
2023/08/10 07:10:35;;;;;;;2.13;0.20;;;19.00;99.90;;;;;;5033139;28;20026;-78
2023/08/10 07:13:01;;;;;;;0.22;0.20;;;19.30;99.90;;;;;;5034309;28;20079;-77
2023/08/10 07:15:27;;;;;;;0.30;0.03;;;19.40;99.90;;;;;;5034073;28;20038;-78
2023/08/10 07:17:53;;;;;;;3.03;0.30;;;19.30;99.90;;;;;;5035148;28;20100;-77
2023/08/10 07:20:18;;;;;;;2.60;0.10;;;19.30;99.90;;;;;;5034466;28;20537;-77
2023/08/10 07:22:47;;;;;;;3.70;0.10;;;19.10;99.90;;;;;;5034291;28;20099;-78
2023/08/10 07:25:16;;;;;;;0.40;0.10;;;19.00;99.90;;;;;;5034251;28;20028;-77
2023/08/10 07:27:43;;;;;;;1.10;0.20;;;19.00;99.90;;;;;;5033705;28;20100;-78
2023/08/10 07:30:09;;;;;;;0.82;0.10;;;19.00;99.90;;;;;;5033427;28;20040;-78
2023/08/10 07:32:35;;;;;;;0.65;0.00;;;18.90;99.90;;;;;;5033519;28;20025;-77
2023/08/10 07:35:01;;;;;;;0.80;0.10;;;19.10;99.90;;;;;;5032256;28;20030;-77
2023/08/10 07:37:26;;;;;;;0.10;0.00;;;18.80;99.90;;;;;;5033976;28;20057;-77
2023/08/10 07:39:52;;;;;;;2.42;0.00;;;18.70;99.90;;;;;;5032745;28;20106;-78
2023/08/10 07:42:17;;;;;;;1.42;0.00;;;18.60;99.90;;;;;;5034576;28;20076;-77
2023/08/10 07:44:43;;;;;;;0.10;0.00;;;18.60;99.90;;;;;;5033937;28;20388;-77
2023/08/10 07:47:09;;;;;;;1.75;0.10;;;18.60;99.90;;;;;;5033729;28;20021;-77
2023/08/10 07:49:34;;;;;;;4.75;0.50;;;18.60;99.90;;;;;;5037196;28;20029;-79
2023/08/10 07:52:00;;;;;;;1.92;0.28;;;18.50;99.90;;;;;;5036354;28;20381;-77
2023/08/10 07:54:25;;;;;;;1.95;0.10;;;18.50;99.90;;;;;;5036318;28;20480;-76
2023/08/10 07:56:51;;;;;;;2.65;0.55;;;19.10;99.90;;;;;;5037331;28;20065;-77
2023/08/10 07:59:17;;;;;;;1.40;0.15;;;18.60;99.90;;;;;;5036059;28;20032;-76
2023/08/10 08:01:43;;;;;;;1.45;0.15;;;18.60;99.90;;;;;;5035880;28;20021;-77
2023/08/10 08:04:09;;;;;;;5.00;0.32;;;18.70;99.90;;;;;;5036200;28;20017;-77
2023/08/10 08:06:36;;;;;;;1.42;0.10;;;18.70;99.90;;;;;;5037728;28;20037;-77
2023/08/10 08:09:03;;;;;;;0.63;0.00;;;19.20;99.90;;;;;;5037472;28;20152;-78
2023/08/10 08:11:28;;;;;;;5.45;0.88;;;19.00;99.90;;;;;;5037350;28;20029;-76
2023/08/10 08:13:54;;;;;;;3.92;0.50;;;19.10;99.90;;;;;;5036206;28;20031;-78
2023/08/10 08:16:20;;;;;;;7.15;0.75;;;19.30;99.90;;;;;;5037742;28;20029;-78
2023/08/10 08:18:52;;;;;;;9.27;1.08;;;19.40;99.90;;;;;;5037894;28;20030;-77
2023/08/10 08:21:20;;;;;;;8.85;1.23;;;19.40;99.90;;;;;;5037100;28;20021;-76
2023/08/10 08:23:46;;;;;;;15.25;1.52;;;19.40;99.90;;;;;;5035577;28;20029;-77
2023/08/10 08:26:14;;;;;;;4.80;0.65;;;19.60;99.90;;;;;;5036609;28;20026;-76
2023/08/10 08:28:40;;;;;;;1.13;0.00;;;19.50;99.90;;;;;;5036929;28;20022;-78
2023/08/10 08:31:06;;;;;;;4.75;0.20;;;19.80;99.90;;;;;;5035787;28;20040;-77
2023/08/10 08:33:32;;;;;;;3.05;0.52;;;20.20;99.90;;;;;;5035196;28;20021;-77
2023/08/10 08:35:58;;;;;;;2.47;0.50;;;20.50;99.90;;;;;;5035229;28;20025;-77
2023/08/10 08:38:29;;;;;;;1.20;0.50;;;20.80;99.90;;;;;;5036596;28;20060;-77
2023/08/10 08:40:55;;;;;;;2.78;0.70;;;20.90;99.90;;;;;;5035371;28;20017;-77
2023/08/10 08:43:21;;;;;;;7.70;1.15;;;21.00;99.90;;;;;;5036903;28;20464;-77
2023/08/10 08:45:48;;;;;;;2.05;0.75;;;21.10;99.90;;;;;;5035086;28;20044;-76
2023/08/10 08:48:18;;;;;;;2.58;1.20;;;21.20;99.90;;;;;;5035080;28;20104;-76
2023/08/10 08:50:45;;;;;;;6.88;1.63;;;21.30;99.90;;;;;;5036305;28;20026;-76
2023/08/10 08:53:12;;;;;;;12.10;2.95;;;22.10;99.90;;;;;;5037263;28;20025;-77
2023/08/10 08:55:41;;;;;;;9.13;1.73;;;21.50;99.90;;;;;;5036570;28;20029;-78
2023/08/10 08:58:07;;;;;;;3.03;1.23;;;21.80;99.90;;;;;;5035224;28;20101;-77
2023/08/10 09:00:33;;;;;;;2.83;1.35;;;21.80;99.90;;;;;;5036203;28;20068;-77
2023/08/10 09:02:59;;;;;;;4.60;1.58;;;21.90;99.90;;;;;;5035101;28;20025;-77
2023/08/10 09:05:27;;;;;;;5.07;0.97;;;21.80;99.90;;;;;;5035302;28;20150;-76
2023/08/10 09:07:53;;;;;;;3.63;1.55;;;21.80;99.90;;;;;;5034932;28;20060;-76
2023/08/10 09:10:20;;;;;;;4.07;1.30;;;22.40;99.90;;;;;;5036101;28;20017;-76
2023/08/10 09:12:47;;;;;;;2.60;0.95;;;21.90;99.90;;;;;;5034870;28;20039;-76
2023/08/10 09:15:15;;;;;;;3.40;1.27;;;22.00;99.90;;;;;;5036639;28;20025;-75
2023/08/10 09:17:53;;;;;;;19.65;2.42;;;22.00;99.90;;;;;;5035765;28;20120;-77
2023/08/10 09:20:22;;;;;;;5.18;1.40;;;22.10;99.90;;;;;;5035992;28;20029;-76
2023/08/10 09:22:49;;;;;;;2.70;1.10;;;22.30;99.90;;;;;;5034303;28;20116;-77
2023/08/10 09:25:15;;;;;;;2.42;0.98;;;22.10;99.90;;;;;;5035510;28;20033;-77
2023/08/10 09:27:41;;;;;;;3.47;1.50;;;22.00;99.90;;;;;;5034536;28;20025;-76
2023/08/10 09:30:07;;;;;;;3.40;1.08;;;21.90;99.90;;;;;;5035454;28;20473;-75
2023/08/10 09:32:34;;;;;;;3.38;1.08;;;22.00;99.90;;;;;;5035510;28;20079;-75
2023/08/10 09:34:59;;;;;;;2.38;0.98;;;21.90;99.90;;;;;;5035951;28;20032;-77
2023/08/10 09:37:26;;;;;;;2.35;0.85;;;21.90;99.90;;;;;;5035955;28;20026;-77
2023/08/10 09:39:56;;;;;;;1.58;0.38;;;20.70;99.90;;;;;;5034786;28;20063;-76
2023/08/10 09:42:23;;;;;;;2.63;0.38;;;22.20;99.90;;;;;;5034659;28;20018;-77
2023/08/10 09:44:50;;;;;;;3.15;0.45;;;22.40;99.90;;;;;;5035908;28;20438;-78
2023/08/10 09:47:17;;;;;;;2.40;0.25;;;22.40;99.90;;;;;;5035567;28;20481;-78
2023/08/10 09:50:00;;;;;;;2.25;0.38;;;22.50;99.90;;;;;;5035950;28;20021;-77
2023/08/10 09:52:27;;;;;;;2.47;0.40;;;22.60;99.90;;;;;;5034113;28;20052;-77
2023/08/10 09:54:54;;;;;;;1.55;0.45;;;22.80;99.90;;;;;;5035767;28;20076;-77
2023/08/10 09:57:21;;;;;;;1.67;0.50;;;22.80;99.90;;;;;;5035288;28;20477;-77
2023/08/10 09:59:47;;;;;;;4.18;0.55;;;23.00;99.90;;;;;;5035328;28;20033;-77
2023/08/10 10:02:15;;;;;;;2.05;0.40;;;23.00;99.90;;;;;;5035007;28;20539;-77
2023/08/10 10:04:42;;;;;;;3.13;0.55;;;22.90;99.90;;;;;;5035172;28;20026;-77
2023/08/10 10:07:09;;;;;;;2.72;0.40;;;22.90;99.90;;;;;;5035394;28;20033;-77
2023/08/10 10:09:39;;;;;;;1.05;0.35;;;23.00;99.90;;;;;;5035431;28;20029;-76
2023/08/10 10:12:08;;;;;;;4.32;0.55;;;23.20;99.90;;;;;;5033226;28;20024;-76
2023/08/10 10:14:37;;;;;;;1.77;0.77;;;23.20;99.90;;;;;;5035551;28;20550;-77
2023/08/10 10:17:04;;;;;;;5.53;0.77;;;23.40;99.90;;;;;;5034951;28;20469;-78
2023/08/10 10:19:31;;;;;;;1.63;0.30;;;23.10;99.90;;;;;;5034930;28;20477;-76
2023/08/10 10:21:56;;;;;;;2.35;1.05;;;23.10;99.90;;;;;;5034737;28;20025;-77
2023/08/10 10:24:28;;;;;;;3.60;1.00;;;23.10;99.90;;;;;;5035022;28;20123;-77
2023/08/10 10:26:57;;;;;;;2.60;0.40;;;22.90;99.90;;;;;;5033798;28;20021;-78
2023/08/10 10:29:54;;;;;;;1.77;0.60;;;22.80;99.90;;;;;;5034629;28;20481;-76
2023/08/10 10:32:21;;;;;;;4.38;0.30;;;22.80;99.90;;;;;;5030750;28;20033;-78
2023/08/10 10:34:49;;;;;;;2.10;0.20;;;22.90;99.90;;;;;;5033571;28;20029;-78
2023/08/10 10:37:17;;;;;;;3.00;0.57;;;22.90;99.90;;;;;;5034262;28;20027;-77
2023/08/10 10:39:49;;;;;;;2.05;0.70;;;22.90;99.90;;;;;;5033098;28;20112;-77
2023/08/10 10:42:20;;;;;;;0.73;0.10;;;23.00;99.90;;;;;;5034235;28;20472;-77
2023/08/10 10:44:59;;;;;;;3.75;0.40;;;23.30;99.90;;;;;;5033164;28;20051;-76
2023/08/10 10:47:37;;;;;;;0.20;0.00;;;23.60;99.90;;;;;;5034604;28;20369;-78
2023/08/10 10:50:18;;;;;;;0.63;0.10;;;23.80;99.90;;;;;;5033165;28;20441;-77
2023/08/10 10:52:55;;;;;;;1.20;0.38;;;23.70;99.80;;;;;;5032974;28;20059;-77
2023/08/10 10:55:25;;;;;;;0.77;0.10;;;23.80;99.90;;;;;;5034555;28;20114;-77
2023/08/10 10:57:51;;;;;;;6.18;0.38;;;23.80;99.90;;;;;;5035320;28;20072;-78
2023/08/10 11:00:18;;;;;;;2.65;0.32;;;23.80;99.40;;;;;;5034294;28;20033;-75
2023/08/10 11:02:46;;;;;;;2.03;0.20;;;23.70;98.30;;;;;;5032862;28;20547;-76
2023/08/10 11:05:17;;;;;;;2.53;0.10;;;23.50;98.60;;;;;;5034156;28;20022;-78
2023/08/10 11:07:48;;;;;;;1.55;0.10;;;23.80;99.90;;;;;;5034309;28;20435;-76
2023/08/10 11:10:14;;;;;;;1.10;0.10;;;23.60;98.40;;;;;;5033921;28;20033;-77
2023/08/10 11:12:42;;;;;;;0.68;0.00;;;23.60;99.90;;;;;;5034118;28;20033;-78
2023/08/10 11:15:10;;;;;;;0.33;0.13;;;23.70;99.90;;;;;;5034826;28;20036;-76
2023/08/10 11:17:37;;;;;;;0.47;0.17;;;23.70;99.40;;;;;;5034111;28;20370;-78
2023/08/10 11:20:17;;;;;;;1.80;0.03;;;23.50;97.20;;;;;;5034241;28;20017;-76
2023/08/10 11:22:44;;;;;;;4.47;0.55;;;23.60;99.30;;;;;;5031944;28;20120;-78
2023/08/10 11:25:12;;;;;;;0.43;0.00;;;23.40;98.30;;;;;;5034524;28;20488;-78
2023/08/10 11:28:02;;;;;;;2.33;0.00;;;23.50;99.90;;;;;;5032608;28;20026;-76
2023/08/10 11:30:30;;;;;;;0.40;0.00;;;23.40;98.40;;;;;;5034309;28;20322;-78
2023/08/10 11:32:56;;;;;;;0.00;0.00;;;23.60;98.20;;;;;;5034085;28;20026;-78
2023/08/10 11:35:24;;;;;;;1.45;0.00;;;23.70;96.30;;;;;;5034422;28;20039;-77
2023/08/10 11:37:50;;;;;;;0.10;0.00;;;23.90;97.80;;;;;;5034129;28;20028;-78
2023/08/10 11:40:20;;;;;;;2.00;0.25;;;24.00;96.30;;;;;;5034230;28;20448;-77
2023/08/10 11:43:10;;;;;;;0.20;0.00;;;24.20;96.10;;;;;;5032797;28;20020;-76
2023/08/10 11:45:37;;;;;;;0.85;0.00;;;24.30;96.30;;;;;;5032755;28;20032;-76
2023/08/10 11:48:09;;;;;;;0.35;0.00;;;24.40;97.60;;;;;;5034247;28;20481;-77
2023/08/10 11:50:38;;;;;;;2.08;0.08;;;24.50;99.00;;;;;;5034303;28;20053;-77
2023/08/10 11:53:18;;;;;;;;;;;24.50;95.30;;;;;;5032968;28;20051;-77
2023/08/10 11:55:46;;;;;;;0.22;0.05;;;24.50;96.60;;;;;;5033458;28;19909;-77
2023/08/10 11:58:13;;;;;;;0.93;0.00;;;24.70;97.20;;;;;;5032278;28;20397;-77
2023/08/10 12:00:41;;;;;;;1.40;0.28;;;24.70;95.40;;;;;;5032530;28;20036;-76
2023/08/10 12:03:26;;;;;;;0.08;0.00;;;24.80;95.70;;;;;;5032435;28;20512;-78
2023/08/10 12:05:54;;;;;;;1.27;0.00;;;24.80;97.40;;;;;;5033684;28;20101;-77
2023/08/10 12:08:35;;;;;;;0.13;0.00;;;24.80;96.80;;;;;;5032259;28;20511;-77
2023/08/10 12:11:07;;;;;;;0.82;0.05;;;25.10;95.80;;;;;;5033463;28;20508;-77
2023/08/10 12:13:49;;;;;;;2.95;0.32;;;25.30;97.90;;;;;;5033727;28;20018;-76
2023/08/10 12:16:19;;;;;;;0.52;0.00;;;25.60;96.80;;;;;;5032385;28;20061;-76
2023/08/10 12:18:45;;;;;;;0.32;0.00;;;25.70;94.30;;;;;;5033322;28;20018;-76
2023/08/10 12:21:11;;;;;;;0.82;0.10;;;25.90;95.50;;;;;;5034366;28;20079;-78
2023/08/10 12:23:37;;;;;;;0.75;0.03;;;25.90;93.30;;;;;;5032357;28;20075;-78
2023/08/10 12:26:03;;;;;;;0.55;0.00;;;25.80;95.20;;;;;;5032241;28;20120;-77
2023/08/10 12:28:29;;;;;;;0.32;0.00;;;25.80;94.40;;;;;;5032155;28;20022;-77
2023/08/10 12:30:54;;;;;;;0.10;0.10;;;25.60;93.00;;;;;;5033364;28;20030;-78
2023/08/10 12:33:20;;;;;;;0.28;0.00;;;25.50;92.80;;;;;;5033326;28;20021;-77
2023/08/10 12:35:45;;;;;;;1.85;0.40;;;25.60;92.70;;;;;;5035934;28;20023;-76
2023/08/10 12:38:11;;;;;;;1.17;0.00;;;25.50;92.70;;;;;;5037559;28;20074;-77
2023/08/10 12:40:38;;;;;;;0.30;0.15;;;25.40;92.20;;;;;;5037338;28;20025;-77
2023/08/10 12:43:05;;;;;;;0.10;0.00;;;25.60;94.00;;;;;;5036893;28;20025;-77
2023/08/10 12:45:30;;;;;;;0.10;0.00;;;25.80;92.70;;;;;;5036421;28;20021;-77
2023/08/10 12:47:56;;;;;;;0.00;0.00;;;26.10;94.40;;;;;;5036836;28;20449;-77